createdAt,value
2023-03-05T00:02:52.775Z,42.07
2023-03-05T00:08:17.050Z,42.35
2023-03-05T00:13:40.833Z,43.85
2023-03-05T00:19:04.822Z,41.17
2023-03-05T00:24:32.807Z,41.25
2023-03-05T00:29:57.291Z,38.17
2023-03-05T00:35:21.994Z,42.78
2023-03-05T00:40:48.473Z,38.28
2023-03-05T00:46:11.654Z,30.23
2023-03-05T00:51:35.779Z,36.75
2023-03-05T00:57:00.494Z,35.13
2023-03-05T01:02:27.038Z,35.97
2023-03-05T01:07:51.777Z,33.20
2023-03-05T01:13:15.203Z,38.33
2023-03-05T01:18:40.687Z,32.38
2023-03-05T01:24:05.268Z,31.60
2023-03-05T01:29:28.565Z,36.63
2023-03-05T01:34:52.348Z,28.75
2023-03-05T01:40:17.412Z,38.10
2023-03-05T01:45:43.367Z,35.48
2023-03-05T01:51:08.326Z,31.07
2023-03-05T01:56:32.420Z,32.65
2023-03-05T02:01:59.191Z,32.48
2023-03-05T02:07:24.304Z,27.25
2023-03-05T02:12:47.406Z,25.50
2023-03-05T02:18:10.372Z,26.15
2023-03-05T02:29:13.945Z,22.03
2023-03-05T02:34:38.645Z,23.23
2023-03-05T02:40:03.879Z,21.47
2023-03-05T02:45:28.730Z,21.17
2023-03-05T02:50:55.122Z,17.63
2023-03-05T02:56:19.609Z,15.53
2023-03-05T03:01:42.690Z,15.97
2023-03-05T03:07:05.704Z,15.23
2023-03-05T03:12:28.932Z,16.10
2023-03-05T03:17:52.806Z,12.93
2023-03-05T03:23:15.176Z,15.03
2023-03-05T03:28:37.445Z,14.07
2023-03-05T03:33:59.762Z,11.37
2023-03-05T03:39:24.316Z,13.20
2023-03-05T03:44:47.190Z,13.63
2023-03-05T03:50:11.242Z,11.13
2023-03-05T03:55:33.927Z,10.13
2023-03-05T04:00:58.952Z,9.78
2023-03-05T04:06:21.898Z,11.30
2023-03-05T04:11:44.553Z,8.50
2023-03-05T04:17:06.819Z,12.30
2023-03-05T04:22:33.638Z,10.13
2023-03-05T04:27:57.607Z,13.17
2023-03-05T04:33:20.386Z,8.80
2023-03-05T04:38:43.436Z,11.33
2023-03-05T04:44:05.636Z,11.30
2023-03-05T04:49:28.030Z,10.37
2023-03-05T04:54:51.516Z,10.10
2023-03-05T05:00:15.348Z,9.37
2023-03-05T05:05:40.562Z,12.30
2023-03-05T05:11:10.280Z,10.67
2023-03-05T05:16:32.463Z,9.77
2023-03-05T05:21:55.878Z,8.73
2023-03-05T05:27:18.144Z,13.98
2023-03-05T05:32:42.381Z,10.10
2023-03-05T05:38:06.254Z,12.70
2023-03-05T05:43:31.145Z,14.13
2023-03-05T05:48:56.876Z,12.17
2023-03-05T05:54:22.817Z,10.20
2023-03-05T05:59:48.129Z,11.40
2023-03-05T06:05:12.553Z,9.53
2023-03-05T06:10:34.756Z,8.90
2023-03-05T06:16:06.888Z,9.23
2023-03-05T06:21:32.200Z,11.03
2023-03-05T06:26:55.041Z,9.70
2023-03-05T06:32:19.182Z,8.50
2023-03-05T06:37:42.262Z,9.03
2023-03-05T06:43:04.516Z,10.20
2023-03-05T06:48:26.797Z,7.83
2023-03-05T06:53:49.784Z,8.00
2023-03-05T06:59:12.869Z,7.27
2023-03-05T07:04:35.887Z,12.90
2023-03-05T07:09:58.091Z,10.80
2023-03-05T07:15:21.660Z,13.90
2023-03-05T07:20:43.980Z,12.43
2023-03-05T07:26:09.644Z,13.20
2023-03-05T07:31:35.309Z,11.57
2023-03-05T07:36:58.143Z,10.93
2023-03-05T07:42:21.082Z,10.60
2023-03-05T07:47:43.392Z,11.67
2023-03-05T07:53:06.031Z,11.20
2023-03-05T07:58:28.323Z,11.78
2023-03-05T08:03:50.841Z,14.57
2023-03-05T08:09:13.363Z,14.00
2023-03-05T08:14:36.147Z,9.00
2023-03-05T08:20:00.014Z,9.87
2023-03-05T08:25:23.335Z,11.55
2023-03-05T08:30:47.336Z,12.73
2023-03-05T08:36:10.020Z,11.45
2023-03-05T08:41:32.361Z,13.23
2023-03-05T08:46:54.718Z,12.70
2023-03-05T08:52:17.137Z,18.60
2023-03-05T08:57:39.398Z,14.47
2023-03-05T09:03:01.817Z,14.40
2023-03-05T09:08:25.321Z,11.00
2023-03-05T09:13:48.296Z,11.37
2023-03-05T09:19:13.381Z,9.07
2023-03-05T09:24:36.881Z,10.05
2023-03-05T09:29:59.377Z,12.07
2023-03-05T09:35:22.746Z,11.93
2023-03-05T09:41:04.285Z,9.87
2023-03-05T09:46:49.351Z,12.07
2023-03-05T09:52:16.447Z,11.87
2023-03-05T09:57:58.599Z,14.13
2023-03-05T10:03:31.279Z,12.17
2023-03-05T10:14:54.189Z,21.43
2023-03-05T10:20:45.713Z,13.17
2023-03-05T10:26:30.515Z,13.60
2023-03-05T10:32:06.735Z,13.07
2023-03-05T10:37:55.281Z,13.03
2023-03-05T10:44:02.917Z,11.27
2023-03-05T10:49:44.288Z,12.67
2023-03-05T10:55:07.072Z,10.83
2023-03-05T11:00:42.945Z,13.03
2023-03-05T11:06:16.897Z,12.50
2023-03-05T11:11:39.959Z,11.27
2023-03-05T11:17:04.558Z,13.20
2023-03-05T11:22:32.474Z,9.77
2023-03-05T11:28:03.927Z,8.10
2023-03-05T11:33:29.251Z,8.57
2023-03-05T11:39:03.295Z,10.37
2023-03-05T11:44:55.281Z,10.13
2023-03-05T11:50:30.712Z,9.23
2023-03-05T11:56:10.180Z,6.05
2023-03-05T12:01:39.597Z,8.73
2023-03-05T12:07:13.491Z,8.20
2023-03-05T12:12:49.371Z,8.30
2023-03-05T12:18:37.378Z,7.53
2023-03-05T12:24:08.654Z,12.07
2023-03-05T12:29:57.215Z,7.13
2023-03-05T12:35:44.190Z,8.00
2023-03-05T12:41:28.053Z,9.58
2023-03-05T12:46:54.777Z,8.53
2023-03-05T12:52:26.254Z,12.10
2023-03-05T12:57:52.246Z,9.18
2023-03-05T13:03:19.974Z,8.63
2023-03-05T13:08:48.327Z,9.70
2023-03-05T13:14:11.272Z,9.13
2023-03-05T13:19:36.635Z,8.65
2023-03-05T13:25:17.146Z,6.97
2023-03-05T13:30:41.818Z,9.30
2023-03-05T13:36:05.483Z,8.30
2023-03-05T13:41:39.104Z,9.97
2023-03-05T13:47:03.241Z,8.23
2023-03-05T13:52:31.770Z,7.12
2023-03-05T13:57:59.212Z,8.50
2023-03-05T14:03:34.967Z,8.93
2023-03-05T14:08:59.998Z,7.62
2023-03-05T14:14:32.009Z,6.37
2023-03-05T14:19:58.139Z,5.30
2023-03-05T14:25:40.562Z,3.50
2023-03-05T14:31:08.450Z,1.53
2023-03-05T14:36:39.361Z,3.37
2023-03-05T14:42:01.636Z,1.40
2023-03-05T14:47:23.959Z,2.02
2023-03-05T14:52:47.296Z,3.40
2023-03-05T14:58:23.508Z,2.70
2023-03-05T15:03:45.871Z,1.40
2023-03-05T15:09:08.305Z,3.02
2023-03-05T15:14:31.113Z,2.80
2023-03-05T15:19:54.297Z,6.70
2023-03-05T15:25:18.292Z,3.98
2023-03-05T15:30:53.398Z,4.80
2023-03-05T15:41:55.599Z,6.93
2023-03-05T15:47:18.132Z,5.80
2023-03-05T15:52:40.908Z,4.43
2023-03-05T15:58:05.733Z,3.90
2023-03-05T16:03:31.248Z,4.20
2023-03-05T16:09:00.779Z,4.03
2023-03-05T16:14:26.696Z,5.50
2023-03-05T16:19:51.608Z,4.10
2023-03-05T16:25:14.228Z,6.50
2023-03-05T16:30:37.891Z,9.53
2023-03-05T16:36:02.422Z,33.95
2023-03-05T16:41:27.106Z,22.42
2023-03-05T16:46:52.282Z,11.25
2023-03-05T16:52:19.580Z,10.68
2023-03-05T16:57:39.950Z,12.35
2023-03-05T17:03:02.625Z,13.48
2023-03-05T17:08:25.975Z,18.37
2023-03-05T17:13:49.588Z,16.00
2023-03-05T17:19:12.406Z,20.40
2023-03-05T17:24:35.124Z,21.42
2023-03-05T17:29:58.606Z,25.23
2023-03-05T17:35:24.034Z,39.05
2023-03-05T17:40:51.456Z,44.25
2023-03-05T17:46:38.973Z,32.63
2023-03-05T17:52:01.542Z,31.60
2023-03-05T17:57:25.152Z,27.20
2023-03-05T18:02:47.520Z,30.60
2023-03-05T18:08:10.394Z,27.07
2023-03-05T18:13:32.656Z,27.77
2023-03-05T18:18:55.712Z,31.70
2023-03-05T18:24:18.286Z,38.92
2023-03-05T18:29:41.750Z,44.03
2023-03-05T18:35:04.686Z,65.27
2023-03-05T18:40:29.745Z,49.73
2023-03-05T18:45:59.360Z,59.63
2023-03-05T18:51:26.471Z,53.27
2023-03-05T18:56:48.789Z,45.78
2023-03-05T19:02:11.081Z,49.70
2023-03-05T19:07:35.598Z,48.70
2023-03-05T19:13:00.144Z,63.87
2023-03-05T19:18:23.743Z,46.40
2023-03-05T19:23:46.165Z,47.13
2023-03-05T19:29:09.135Z,47.23
2023-03-05T19:34:31.904Z,36.00
2023-03-05T19:39:54.628Z,46.73
2023-03-05T19:45:17.296Z,56.23
2023-03-05T19:50:41.956Z,40.73
2023-03-05T19:56:04.956Z,42.57
2023-03-05T20:01:31.189Z,39.00
2023-03-05T20:06:54.046Z,32.60
2023-03-05T20:12:16.865Z,42.23
2023-03-05T20:17:39.058Z,38.17
2023-03-05T20:23:01.824Z,38.83
2023-03-05T20:28:25.961Z,36.33
2023-03-05T20:33:48.428Z,34.33
2023-03-05T20:39:11.178Z,34.50
2023-03-05T20:44:33.859Z,30.33
2023-03-05T20:49:58.814Z,32.10
2023-03-05T20:55:21.303Z,32.70
2023-03-05T21:00:45.247Z,28.17
2023-03-05T21:06:15.323Z,29.23
2023-03-05T21:11:39.967Z,25.57
2023-03-05T21:17:02.168Z,37.20
2023-03-05T21:22:25.598Z,25.37
2023-03-05T21:27:49.020Z,27.07
2023-03-05T21:33:14.356Z,25.63
2023-03-05T21:38:38.849Z,25.93
2023-03-05T21:44:04.461Z,28.67
2023-03-05T21:49:27.341Z,22.35
2023-03-05T21:54:50.791Z,24.07
2023-03-05T22:00:17.733Z,29.97
2023-03-05T22:05:40.111Z,27.55
2023-03-05T22:11:04.378Z,30.17
2023-03-05T22:16:31.396Z,28.42
2023-03-05T22:21:56.166Z,26.63
2023-03-05T22:27:20.005Z,24.53
2023-03-05T22:32:45.029Z,28.73
2023-03-05T22:38:08.028Z,26.67
2023-03-05T22:43:33.466Z,27.33
2023-03-05T22:48:57.012Z,31.17
2023-03-05T22:54:19.259Z,32.43
2023-03-05T22:59:42.958Z,33.73
2023-03-05T23:05:08.535Z,33.00
2023-03-05T23:10:34.948Z,31.17
2023-03-05T23:15:57.770Z,34.03
2023-03-05T23:21:20.030Z,33.20
2023-03-05T23:26:42.900Z,39.30
2023-03-05T23:32:08.744Z,35.63
2023-03-05T23:37:32.774Z,29.43
2023-03-05T23:42:56.087Z,30.40
2023-03-05T23:48:20.419Z,31.70
2023-03-05T23:53:44.458Z,30.12
2023-03-05T23:59:07.196Z,31.50
